Startpagina
METAR-TAF:

METAR-TAF

Vliegvelden :

Tasjkent, Oezbekistan

breedte: 41-16N, lengte: 069-16E, hoogte: 489 m

Actueel weer

Dit bericht is 44 minuten geleden gemaakt, om 06:30 UTC
Wind 8 kt uit het noordwesten, variërend tussen het westen en het noordnoordoosten
Temperatuur 27°C
Vochtigheid 30%
Druk 1018 hPa
Zicht: 7000 m

METAR: UTTT 300630Z 32008KT 280V030 7000 NSC 27/08 Q1018 R08L/CLRD70 NOSIG

Tijdstip: 12:14 (07:14 UTC)

Verwachting

Dit bericht is 2 uur en het 14 minuten geleden gemaakt, om 05:00 UTC
Verwachting geldig van 30 om 06 UTC tot 31 om 06 UTC
Wind 15 kt uit het noordnoordwesten
Zicht 10 km of meer
geen wolken onder 1500 m en geen cumulonimbus
Tijdelijke
van 30 om 06 UTC tot 30 om 15 UTC
Weinig wolken op 6000 ft, Cumulonimbus.

TAF: UTTT 300500Z 3006/3106 34015KT CAVOK TEMPO 3006/3015 FEW060CB

Waarnemingen en weersverwachtingen van meer dan 4000 vliegvelden (METAR en TAF).

De beschikbare stations zijn de gele en rode punten op de kaart.

Ga met uw muis naar het station om de naam te zien.

Klik dan om waarnemingen en weersverwachtingen te zien.

kaart wijzigen: klik op de groene knoppen met een zwart kruis om in te zoomen, op de groene knop met een streepje om uit te zoomen of op de groene pijlen voor aangrenzende kaarten.


METAR-TAF: